createdAt,value
2017-11-29T00:01:24.759Z,3.20
2017-11-29T00:03:51.809Z,3.20
2017-11-29T00:06:18.644Z,3.20
2017-11-29T00:08:46.091Z,3.10
2017-11-29T00:11:13.568Z,3.10
2017-11-29T00:13:40.279Z,3.10
2017-11-29T00:16:07.042Z,3.10
2017-11-29T00:18:34.544Z,3.00
2017-11-29T00:21:01.437Z,3.00
2017-11-29T00:23:28.253Z,2.90
2017-11-29T00:25:55.132Z,3.00
2017-11-29T00:28:22.646Z,2.90
2017-11-29T00:30:49.453Z,2.90
2017-11-29T00:33:16.261Z,2.90
2017-11-29T00:35:42.918Z,2.80
2017-11-29T00:38:09.852Z,2.80
2017-11-29T00:40:36.996Z,2.90
2017-11-29T00:43:04.432Z,2.90
2017-11-29T00:45:31.170Z,2.80
2017-11-29T00:47:58.296Z,2.90
2017-11-29T00:50:25.170Z,2.80
2017-11-29T00:52:51.993Z,2.80
2017-11-29T00:55:18.789Z,2.80
2017-11-29T00:57:45.611Z,2.80
2017-11-29T01:00:12.637Z,2.70
2017-11-29T01:02:39.639Z,2.70
2017-11-29T01:05:07.346Z,2.80
2017-11-29T01:07:34.085Z,2.80
2017-11-29T01:10:00.971Z,2.90
2017-11-29T01:12:27.859Z,2.90
2017-11-29T01:14:54.650Z,2.80
2017-11-29T01:17:22.125Z,2.70
2017-11-29T01:19:49.319Z,2.70
2017-11-29T01:22:16.032Z,2.70
2017-11-29T01:24:42.733Z,2.60
2017-11-29T01:27:09.445Z,2.60
2017-11-29T01:29:36.198Z,2.60
2017-11-29T01:32:02.971Z,2.70
2017-11-29T01:34:30.353Z,2.60
2017-11-29T01:36:56.988Z,2.60
2017-11-29T01:39:23.706Z,2.50
2017-11-29T01:41:50.711Z,2.60
2017-11-29T01:44:17.284Z,2.60
2017-11-29T01:46:44.017Z,2.60
2017-11-29T01:49:11.195Z,2.60
2017-11-29T01:51:37.902Z,2.60
2017-11-29T01:54:05.447Z,2.70
2017-11-29T01:56:32.203Z,2.80
2017-11-29T01:58:58.906Z,2.70
2017-11-29T02:01:25.693Z,2.80
2017-11-29T02:03:52.436Z,2.80
2017-11-29T02:06:26.344Z,2.90
2017-11-29T02:08:53.794Z,2.90
2017-11-29T02:11:20.495Z,2.90
2017-11-29T02:13:47.264Z,2.90
2017-11-29T02:16:13.935Z,2.90
2017-11-29T02:18:40.623Z,2.90
2017-11-29T02:21:07.317Z,2.90
2017-11-29T02:23:33.927Z,2.90
2017-11-29T02:26:00.707Z,3.00
2017-11-29T02:28:27.561Z,3.00
2017-11-29T02:30:54.262Z,2.90
2017-11-29T02:33:20.983Z,3.00
2017-11-29T02:35:48.583Z,2.90
2017-11-29T02:38:15.182Z,2.90
2017-11-29T02:41:00.342Z,2.80
2017-11-29T02:43:27.077Z,2.80
2017-11-29T02:45:53.937Z,2.80
2017-11-29T02:48:22.335Z,2.60
2017-11-29T02:50:49.275Z,2.60
2017-11-29T02:53:18.399Z,2.50
2017-11-29T02:55:47.870Z,2.50
2017-11-29T02:58:14.817Z,2.50
2017-11-29T03:00:41.458Z,2.40
2017-11-29T03:03:08.179Z,2.50
2017-11-29T03:05:34.924Z,2.40
2017-11-29T03:08:01.555Z,2.40
2017-11-29T03:10:28.213Z,2.30
2017-11-29T03:12:55.078Z,2.30
2017-11-29T03:15:21.809Z,2.20
2017-11-29T03:17:48.549Z,2.20
2017-11-29T03:20:15.226Z,2.00
2017-11-29T03:22:42.141Z,2.00
2017-11-29T03:25:08.943Z,1.80
2017-11-29T03:27:35.788Z,1.80
2017-11-29T03:30:02.745Z,1.60
2017-11-29T03:32:29.800Z,1.60
2017-11-29T03:35:00.962Z,1.40
2017-11-29T03:37:27.767Z,1.40
2017-11-29T03:39:54.555Z,1.30
2017-11-29T03:42:21.224Z,1.30
2017-11-29T03:44:47.940Z,1.20
2017-11-29T03:47:15.574Z,1.00
2017-11-29T03:49:42.488Z,1.00
2017-11-29T03:52:10.000Z,1.00
2017-11-29T03:54:36.735Z,0.90
2017-11-29T03:57:03.631Z,0.80
2017-11-29T03:59:30.283Z,0.80
2017-11-29T04:01:56.972Z,0.70
2017-11-29T04:04:25.055Z,0.70
2017-11-29T04:06:52.979Z,0.60
2017-11-29T04:09:19.705Z,0.70
2017-11-29T04:11:46.511Z,0.70
2017-11-29T04:14:13.333Z,0.70
2017-11-29T04:16:40.257Z,0.70
2017-11-29T04:19:07.633Z,0.70
2017-11-29T04:21:35.309Z,0.70
2017-11-29T04:24:02.332Z,0.60
2017-11-29T04:26:29.081Z,0.60
2017-11-29T04:28:55.901Z,0.60
2017-11-29T04:31:22.696Z,0.50
2017-11-29T04:33:49.712Z,0.50
2017-11-29T04:36:16.381Z,0.60
2017-11-29T04:38:43.060Z,0.60
2017-11-29T04:41:09.859Z,0.50
2017-11-29T04:43:36.864Z,0.50
2017-11-29T04:46:03.788Z,0.40
2017-11-29T04:48:30.671Z,0.30
2017-11-29T04:50:58.036Z,0.20
2017-11-29T04:53:26.075Z,0.20
2017-11-29T04:56:05.578Z,0.10
2017-11-29T05:01:34.093Z,0.20
2017-11-29T05:04:05.050Z,0.10
2017-11-29T05:06:45.252Z,0.10
2017-11-29T05:09:31.848Z,0.10
2017-11-29T05:11:58.396Z,0.10
2017-11-29T05:14:25.836Z,0.10
2017-11-29T05:16:54.816Z,0.00
2017-11-29T05:19:22.049Z,-0.10
2017-11-29T05:21:48.682Z,0.00
2017-11-29T05:24:15.467Z,0.10
2017-11-29T05:26:42.511Z,0.10
2017-11-29T05:29:09.377Z,0.10
2017-11-29T05:31:36.127Z,0.00
2017-11-29T05:34:02.799Z,0.10
2017-11-29T05:36:29.644Z,0.00
2017-11-29T05:38:57.036Z,-0.20
2017-11-29T05:41:24.185Z,-0.10
2017-11-29T05:43:50.969Z,-0.10
2017-11-29T05:46:18.263Z,-0.10
2017-11-29T05:48:44.903Z,-0.10
2017-11-29T05:51:11.694Z,0.10
2017-11-29T05:53:39.757Z,0.20
2017-11-29T05:56:06.509Z,0.20
2017-11-29T05:58:33.283Z,0.20
2017-11-29T06:01:00.199Z,0.20
2017-11-29T06:03:26.927Z,0.10
2017-11-29T06:05:53.900Z,0.10
2017-11-29T06:08:20.555Z,0.10
2017-11-29T06:10:47.221Z,0.30
2017-11-29T06:13:13.890Z,0.30
2017-11-29T06:15:40.530Z,0.60
2017-11-29T06:18:07.239Z,0.80
2017-11-29T06:20:34.752Z,1.10
2017-11-29T06:23:01.875Z,1.20
2017-11-29T06:25:28.508Z,1.20
2017-11-29T06:27:55.832Z,1.10
2017-11-29T06:30:22.601Z,0.90
2017-11-29T06:32:49.393Z,0.80
2017-11-29T06:35:17.111Z,0.60
2017-11-29T06:37:43.776Z,0.50
2017-11-29T06:40:10.383Z,0.40
2017-11-29T06:42:37.007Z,0.30
2017-11-29T06:45:03.570Z,0.20
2017-11-29T06:47:31.045Z,0.10
2017-11-29T06:49:57.733Z,0.20
2017-11-29T06:52:24.280Z,0.10
2017-11-29T06:54:50.994Z,0.10
2017-11-29T06:57:17.585Z,0.10
2017-11-29T06:59:44.228Z,0.20
2017-11-29T07:02:10.788Z,0.30
2017-11-29T07:04:37.388Z,0.40
2017-11-29T07:07:03.967Z,0.50
2017-11-29T07:09:30.555Z,0.50
2017-11-29T07:11:57.127Z,0.50
2017-11-29T07:14:23.653Z,0.60
2017-11-29T07:16:50.262Z,0.80
2017-11-29T07:19:16.769Z,0.90
2017-11-29T07:21:43.282Z,1.00
2017-11-29T07:24:10.042Z,1.10
2017-11-29T07:26:36.564Z,1.30
2017-11-29T07:29:03.129Z,1.30
2017-11-29T07:31:29.875Z,1.40
2017-11-29T07:33:56.411Z,1.60
2017-11-29T07:36:23.994Z,1.50
2017-11-29T07:38:50.505Z,1.50
2017-11-29T07:43:50.459Z,1.50
2017-11-29T07:46:16.967Z,1.60
2017-11-29T07:48:45.322Z,1.70
2017-11-29T07:51:11.889Z,1.70
2017-11-29T07:53:39.010Z,1.80
2017-11-29T07:56:05.299Z,1.80
2017-11-29T07:58:31.724Z,1.80
2017-11-29T08:00:58.813Z,1.70
2017-11-29T08:03:25.197Z,1.70
2017-11-29T08:05:52.246Z,1.80
2017-11-29T08:08:19.493Z,1.80
2017-11-29T08:10:46.619Z,1.80
2017-11-29T08:13:12.925Z,1.70
2017-11-29T08:15:39.323Z,1.80
2017-11-29T08:18:05.711Z,1.80
2017-11-29T08:20:34.193Z,1.90
2017-11-29T08:23:00.492Z,1.80
2017-11-29T08:25:26.859Z,1.80
2017-11-29T08:27:53.253Z,1.70
2017-11-29T08:30:19.522Z,1.70
2017-11-29T08:32:57.291Z,1.70
2017-11-29T08:35:25.361Z,1.70
2017-11-29T08:37:52.457Z,1.70
2017-11-29T08:40:18.832Z,1.80
2017-11-29T08:42:47.987Z,1.70
2017-11-29T08:45:14.382Z,1.80
2017-11-29T08:47:40.666Z,1.90
2017-11-29T08:50:07.712Z,2.40
2017-11-29T08:52:34.773Z,2.50
2017-11-29T08:55:01.055Z,2.40
2017-11-29T08:57:27.431Z,2.60
2017-11-29T08:59:53.762Z,2.80
2017-11-29T09:02:20.097Z,2.90
2017-11-29T09:04:46.428Z,3.00
2017-11-29T09:07:13.470Z,3.50
2017-11-29T09:09:39.821Z,3.50
2017-11-29T09:12:06.158Z,3.80
2017-11-29T09:14:32.513Z,4.10
2017-11-29T09:16:58.824Z,4.30
2017-11-29T09:19:26.083Z,4.60
2017-11-29T09:21:54.030Z,5.10
2017-11-29T09:24:20.331Z,5.10
2017-11-29T09:26:46.590Z,5.20
2017-11-29T09:29:12.903Z,5.10
2017-11-29T09:31:39.928Z,5.40
2017-11-29T09:34:06.234Z,5.30
2017-11-29T09:36:33.392Z,5.30
2017-11-29T09:38:59.695Z,5.00
2017-11-29T09:41:26.068Z,5.00
2017-11-29T09:43:52.436Z,5.00
2017-11-29T09:46:18.676Z,4.90
2017-11-29T09:48:44.972Z,4.90
2017-11-29T09:51:11.291Z,5.00
2017-11-29T09:53:37.600Z,4.90
2017-11-29T09:56:03.878Z,5.00
2017-11-29T09:58:30.923Z,5.10
2017-11-29T10:00:57.963Z,5.20
2017-11-29T10:03:24.186Z,5.10
2017-11-29T10:05:50.464Z,5.30
2017-11-29T10:08:16.770Z,5.60
2017-11-29T10:10:43.067Z,5.70
2017-11-29T10:13:09.463Z,5.80
2017-11-29T10:15:35.821Z,6.00
2017-11-29T10:18:02.139Z,6.30
2017-11-29T10:20:28.425Z,6.30
2017-11-29T10:22:55.498Z,6.70
2017-11-29T10:25:21.924Z,6.70
2017-11-29T10:27:48.283Z,7.10
2017-11-29T10:30:14.649Z,7.30
2017-11-29T10:32:40.979Z,7.50
2017-11-29T10:35:07.320Z,7.80
2017-11-29T10:37:33.716Z,8.30
2017-11-29T10:40:00.060Z,8.60
2017-11-29T10:42:26.330Z,9.00
2017-11-29T10:44:53.350Z,9.30
2017-11-29T10:47:19.623Z,9.30
2017-11-29T10:49:45.954Z,8.90
2017-11-29T10:52:12.246Z,9.00
2017-11-29T10:54:38.774Z,9.20
2017-11-29T10:57:05.068Z,8.60
2017-11-29T10:59:31.355Z,8.60
2017-11-29T11:01:57.617Z,8.20
2017-11-29T11:04:23.900Z,7.90
2017-11-29T11:06:51.157Z,7.70
2017-11-29T11:09:17.438Z,7.70
2017-11-29T11:11:43.741Z,7.70
2017-11-29T11:14:10.082Z,7.50
2017-11-29T11:16:36.361Z,7.50
2017-11-29T11:19:02.669Z,7.60
2017-11-29T11:21:28.968Z,7.50
2017-11-29T11:23:55.268Z,7.50
2017-11-29T11:26:21.593Z,7.40
2017-11-29T11:28:47.970Z,7.40
2017-11-29T11:31:14.284Z,7.60
2017-11-29T11:33:41.328Z,10.30
2017-11-29T11:36:08.359Z,11.50
2017-11-29T11:38:35.391Z,14.40
2017-11-29T11:41:01.715Z,14.30
2017-11-29T11:43:28.128Z,16.10
2017-11-29T11:45:54.431Z,17.10
2017-11-29T11:48:20.690Z,17.90
2017-11-29T11:50:46.943Z,17.90
2017-11-29T11:53:13.224Z,15.50
2017-11-29T11:55:39.539Z,11.90
2017-11-29T11:58:06.565Z,10.40
2017-11-29T12:00:32.857Z,10.40
2017-11-29T12:02:59.139Z,9.70
2017-11-29T12:05:26.163Z,9.60
2017-11-29T12:07:52.408Z,9.60
2017-11-29T12:10:18.728Z,9.20
2017-11-29T12:12:45.015Z,8.90
2017-11-29T12:15:11.302Z,8.70
2017-11-29T12:17:38.358Z,7.90
2017-11-29T12:20:05.421Z,8.00
2017-11-29T12:22:31.739Z,7.90
2017-11-29T12:24:58.769Z,8.10
2017-11-29T12:27:25.982Z,8.00
2017-11-29T12:29:52.279Z,7.90
2017-11-29T12:32:18.586Z,7.90
2017-11-29T12:34:44.904Z,8.10
2017-11-29T12:37:11.235Z,8.20
2017-11-29T12:39:37.540Z,7.90
2017-11-29T12:42:03.899Z,7.70
2017-11-29T12:44:31.266Z,7.70
2017-11-29T12:46:57.549Z,8.00
2017-11-29T12:49:42.617Z,8.10
2017-11-29T12:52:08.894Z,8.30
2017-11-29T12:54:35.214Z,8.20
2017-11-29T12:57:01.490Z,8.50
2017-11-29T12:59:27.892Z,8.50
2017-11-29T13:01:54.190Z,8.60
2017-11-29T13:04:20.485Z,8.70
2017-11-29T13:06:46.762Z,8.50
2017-11-29T13:09:13.070Z,8.60
2017-11-29T13:11:39.418Z,8.50
2017-11-29T13:14:05.758Z,8.20
2017-11-29T13:16:32.076Z,8.00
2017-11-29T13:18:58.434Z,7.40
2017-11-29T13:21:24.791Z,7.30
2017-11-29T13:23:51.125Z,7.10
2017-11-29T13:26:17.440Z,7.50
2017-11-29T13:28:43.712Z,7.30
2017-11-29T13:31:10.015Z,7.20
2017-11-29T13:33:37.094Z,7.20
2017-11-29T13:36:03.387Z,7.20
2017-11-29T13:38:29.767Z,7.40
2017-11-29T13:40:56.134Z,7.30
2017-11-29T13:43:22.486Z,7.70
2017-11-29T13:45:49.537Z,12.20
2017-11-29T13:48:16.549Z,13.70
2017-11-29T13:50:42.846Z,13.70
2017-11-29T13:53:09.163Z,12.60
2017-11-29T13:55:35.452Z,11.20
2017-11-29T13:58:01.789Z,10.70
2017-11-29T14:00:28.916Z,9.20
2017-11-29T14:02:55.265Z,9.20
2017-11-29T14:05:21.705Z,8.60
2017-11-29T14:07:48.011Z,8.20
2017-11-29T14:10:14.322Z,7.70
2017-11-29T14:12:40.609Z,7.40
2017-11-29T14:15:07.642Z,7.00
2017-11-29T14:17:33.918Z,6.90
2017-11-29T14:20:00.176Z,6.70
2017-11-29T14:22:26.460Z,6.50
2017-11-29T14:24:53.500Z,6.30
2017-11-29T14:27:20.607Z,6.10
2017-11-29T14:29:46.877Z,6.10
2017-11-29T14:32:13.895Z,6.00
2017-11-29T14:34:40.199Z,6.00
2017-11-29T14:37:06.514Z,6.00
2017-11-29T14:39:32.949Z,6.00
2017-11-29T14:41:59.280Z,6.00
2017-11-29T14:44:25.565Z,5.90
2017-11-29T14:46:51.852Z,6.00
2017-11-29T14:49:18.184Z,6.00
2017-11-29T14:51:44.608Z,6.00
2017-11-29T14:54:10.885Z,6.00
2017-11-29T14:56:37.226Z,6.00
2017-11-29T14:59:03.527Z,5.90
2017-11-29T15:01:29.863Z,5.70
2017-11-29T15:03:56.161Z,5.70
2017-11-29T15:06:22.506Z,5.60
2017-11-29T15:08:49.557Z,5.70
2017-11-29T15:11:15.838Z,5.60
2017-11-29T15:13:42.874Z,5.70
2017-11-29T15:16:09.898Z,5.70
2017-11-29T15:18:37.261Z,5.70
2017-11-29T15:21:03.566Z,5.80
2017-11-29T15:23:29.919Z,5.80
2017-11-29T15:25:56.218Z,5.70
2017-11-29T15:28:22.553Z,5.60
2017-11-29T15:30:48.890Z,5.60
2017-11-29T15:33:15.223Z,5.50
2017-11-29T15:35:41.548Z,5.40
2017-11-29T15:38:07.914Z,5.30
2017-11-29T15:40:34.286Z,5.10
2017-11-29T15:43:00.574Z,5.10
2017-11-29T15:45:26.900Z,5.00
2017-11-29T15:47:53.252Z,4.90
2017-11-29T15:50:19.583Z,4.80
2017-11-29T15:52:45.879Z,4.70
2017-11-29T15:55:12.196Z,4.70
2017-11-29T15:57:38.551Z,4.60
2017-11-29T16:00:04.863Z,4.50
2017-11-29T16:02:31.165Z,4.40
2017-11-29T16:04:57.653Z,4.30
2017-11-29T16:07:23.958Z,4.20
2017-11-29T16:09:50.285Z,4.10
2017-11-29T16:12:16.691Z,4.10
2017-11-29T16:14:43.035Z,4.00
2017-11-29T16:17:09.359Z,3.90
2017-11-29T16:19:37.799Z,3.80
2017-11-29T16:22:04.221Z,3.80
2017-11-29T16:24:30.535Z,3.70
2017-11-29T16:26:56.953Z,3.60
2017-11-29T16:29:23.308Z,3.60
2017-11-29T16:31:49.619Z,3.50
2017-11-29T16:34:15.903Z,3.40
2017-11-29T16:36:43.052Z,3.30
2017-11-29T16:39:10.569Z,3.30
2017-11-29T16:41:37.154Z,3.20
2017-11-29T16:44:04.266Z,3.20
2017-11-29T16:46:30.711Z,3.20
2017-11-29T16:48:57.187Z,3.30
2017-11-29T16:51:24.259Z,3.50
2017-11-29T16:53:50.663Z,3.50
2017-11-29T16:56:17.033Z,3.60
2017-11-29T16:58:43.416Z,3.70
2017-11-29T17:01:09.871Z,3.80
2017-11-29T17:03:36.306Z,3.60
2017-11-29T17:06:02.633Z,3.60
2017-11-29T17:08:28.993Z,3.70
2017-11-29T17:10:55.301Z,3.80
2017-11-29T17:13:21.612Z,3.80
2017-11-29T17:15:47.909Z,3.80
2017-11-29T17:18:14.236Z,3.70
2017-11-29T17:20:40.531Z,3.60
2017-11-29T17:23:06.876Z,3.70
2017-11-29T17:25:33.297Z,3.70
2017-11-29T17:27:59.600Z,3.80
2017-11-29T17:30:28.526Z,3.80
2017-11-29T17:32:54.826Z,3.70
2017-11-29T17:35:21.854Z,3.90
2017-11-29T17:37:48.225Z,3.90
2017-11-29T17:40:14.578Z,3.90
2017-11-29T17:42:40.864Z,4.00
2017-11-29T17:45:08.056Z,3.90
2017-11-29T17:47:34.374Z,3.90
2017-11-29T17:50:00.677Z,3.90
2017-11-29T17:52:26.956Z,4.00
2017-11-29T17:54:53.232Z,4.00
2017-11-29T17:57:20.311Z,4.10
2017-11-29T17:59:46.609Z,4.10
2017-11-29T18:02:13.674Z,4.10
2017-11-29T18:04:40.702Z,4.00
2017-11-29T18:07:07.749Z,4.00
2017-11-29T18:09:34.080Z,4.00
2017-11-29T18:12:00.381Z,4.00
2017-11-29T18:14:26.664Z,4.10
2017-11-29T18:16:52.951Z,4.00
2017-11-29T18:19:19.283Z,3.90
2017-11-29T18:21:45.637Z,4.00
2017-11-29T18:24:12.163Z,4.00
2017-11-29T18:26:38.496Z,4.00
2017-11-29T18:29:06.262Z,4.00
2017-11-29T18:31:32.555Z,4.00
2017-11-29T18:33:58.836Z,4.10
2017-11-29T18:36:25.898Z,4.10
2017-11-29T18:38:52.246Z,4.10
2017-11-29T18:41:18.589Z,4.10
2017-11-29T18:43:44.887Z,4.10
2017-11-29T18:46:11.908Z,4.10
2017-11-29T18:48:38.200Z,4.00
2017-11-29T18:51:04.506Z,4.00
2017-11-29T18:53:30.811Z,3.90
2017-11-29T18:55:57.836Z,3.70
2017-11-29T18:58:24.307Z,3.70
2017-11-29T19:00:50.565Z,3.50
2017-11-29T19:03:16.867Z,3.30
2017-11-29T19:05:43.939Z,2.80
2017-11-29T19:08:10.260Z,2.70
2017-11-29T19:10:36.597Z,2.70
2017-11-29T19:13:02.910Z,2.50
2017-11-29T19:15:29.952Z,2.30
2017-11-29T19:17:57.004Z,2.30
2017-11-29T19:20:24.015Z,2.20
2017-11-29T19:22:50.270Z,2.20
2017-11-29T19:25:17.463Z,2.10
2017-11-29T19:27:43.722Z,2.10
2017-11-29T19:30:10.011Z,2.00
2017-11-29T19:32:36.301Z,2.00
2017-11-29T19:35:02.621Z,1.90
2017-11-29T19:37:28.962Z,1.90
2017-11-29T19:39:55.227Z,1.90
2017-11-29T19:42:22.697Z,1.80
2017-11-29T19:44:49.008Z,1.80
2017-11-29T19:47:16.093Z,1.70
2017-11-29T19:49:42.380Z,1.70
2017-11-29T19:52:09.586Z,1.70
2017-11-29T19:54:35.876Z,1.60
2017-11-29T19:57:02.854Z,1.70
2017-11-29T19:59:29.166Z,1.60
2017-11-29T20:01:55.486Z,1.70
2017-11-29T20:04:21.791Z,1.70
2017-11-29T20:06:48.147Z,1.70
2017-11-29T20:09:14.438Z,1.70
2017-11-29T20:11:40.733Z,1.70
2017-11-29T20:14:07.106Z,1.70
2017-11-29T20:16:33.432Z,1.70
2017-11-29T20:19:00.465Z,1.70
2017-11-29T20:21:27.075Z,1.70
2017-11-29T20:23:54.664Z,1.80
2017-11-29T20:26:21.003Z,1.80
2017-11-29T20:28:47.327Z,1.80
2017-11-29T20:31:13.788Z,1.80
2017-11-29T20:33:40.143Z,1.60
2017-11-29T20:36:06.391Z,1.60
2017-11-29T20:38:32.720Z,1.60
2017-11-29T20:40:59.334Z,1.60
2017-11-29T20:43:27.169Z,1.60
2017-11-29T20:45:53.419Z,1.50
2017-11-29T20:48:21.405Z,1.70
2017-11-29T20:50:47.888Z,1.70
2017-11-29T20:53:14.257Z,1.80
2017-11-29T20:55:40.555Z,1.80
2017-11-29T20:58:07.052Z,1.80
2017-11-29T21:00:33.462Z,1.90
2017-11-29T21:03:00.556Z,2.10
2017-11-29T21:05:26.839Z,2.10
2017-11-29T21:07:54.386Z,2.00
2017-11-29T21:10:21.486Z,2.00
2017-11-29T21:12:47.835Z,2.00
2017-11-29T21:15:14.155Z,2.00
2017-11-29T21:17:40.421Z,1.90
2017-11-29T21:20:06.757Z,1.80
2017-11-29T21:22:33.525Z,1.80
2017-11-29T21:25:00.002Z,1.80
2017-11-29T21:27:26.582Z,1.70
2017-11-29T21:29:53.742Z,1.70
2017-11-29T21:32:20.345Z,1.70
2017-11-29T21:34:46.648Z,1.70
2017-11-29T21:37:12.938Z,1.70
2017-11-29T21:39:39.955Z,1.60
2017-11-29T21:42:06.366Z,1.60
2017-11-29T21:44:32.689Z,1.60
2017-11-29T21:46:59.030Z,1.50
2017-11-29T21:49:25.444Z,1.40
2017-11-29T21:51:51.792Z,1.30
2017-11-29T21:54:18.114Z,1.20
2017-11-29T21:56:44.522Z,1.20
2017-11-29T21:59:11.548Z,1.10
2017-11-29T22:01:38.594Z,1.10
2017-11-29T22:04:12.528Z,1.00
2017-11-29T22:06:39.542Z,1.00
2017-11-29T22:09:05.896Z,1.00
2017-11-29T22:11:32.910Z,0.90
2017-11-29T22:13:59.230Z,0.90
2017-11-29T22:16:25.499Z,0.80
2017-11-29T22:18:52.493Z,1.00
2017-11-29T22:21:18.820Z,0.90
2017-11-29T22:23:45.147Z,1.00
2017-11-29T22:26:11.403Z,1.00
2017-11-29T22:28:37.752Z,0.90
2017-11-29T22:31:04.015Z,0.90
2017-11-29T22:33:30.333Z,1.00
2017-11-29T22:35:57.328Z,1.20
2017-11-29T22:38:24.191Z,1.10
2017-11-29T22:40:50.488Z,1.30
2017-11-29T22:43:16.783Z,1.30
2017-11-29T22:45:43.806Z,1.50
2017-11-29T22:48:10.103Z,1.50
2017-11-29T22:50:36.350Z,1.60
2017-11-29T22:53:02.629Z,1.70
2017-11-29T22:55:29.660Z,1.90
2017-11-29T22:57:56.651Z,2.00
2017-11-29T23:00:26.761Z,2.00
2017-11-29T23:02:53.069Z,2.00
2017-11-29T23:05:20.117Z,2.10
2017-11-29T23:07:47.185Z,2.10
2017-11-29T23:10:13.459Z,2.10
2017-11-29T23:12:39.736Z,2.00
2017-11-29T23:15:06.019Z,2.00
2017-11-29T23:17:32.316Z,2.00
2017-11-29T23:19:58.621Z,2.20
2017-11-29T23:22:25.627Z,2.40
2017-11-29T23:24:51.897Z,2.40
2017-11-29T23:27:18.906Z,2.50
2017-11-29T23:29:45.215Z,2.50
2017-11-29T23:32:11.519Z,2.60
2017-11-29T23:34:37.789Z,2.70
2017-11-29T23:37:04.100Z,2.60
2017-11-29T23:39:30.398Z,2.60
2017-11-29T23:41:56.686Z,2.50
2017-11-29T23:44:23.050Z,2.60
2017-11-29T23:46:50.059Z,2.50
2017-11-29T23:49:16.344Z,2.50
2017-11-29T23:51:42.642Z,2.60
2017-11-29T23:54:08.934Z,2.60
2017-11-29T23:56:35.337Z,2.60
2017-11-29T23:59:01.634Z,2.50
